Besse sur Issole             Avril 2002                                                                                                                                                                                                                                                                                                                                                                                                                                                                                  
  Températures (°C) Humidité Vent  (km/h) Précipitations Pression (hPa) Divers  
Date Max Min Moy de 288 relevés Moy (tx+tn)/2 Index chaleur moyen Index chaleur maxi Froid du au vent moy Froid du au vent moy mini  Tx-Tn Relative maxi Relative mini Relative moy de 288 relevés Relative moy (hx+hn)/2 Point de rosée maxi Point de rosée mini Point de rosée moyen Vent  moy maxi (10mn) Vent  moyen (24h) Direction dominante Rafales (km/h) maxi Direction rafale maxi Rafales moy Total Du jour (mm) Durée (h) Intensité maxi (mm/h) Maxi Mini Moy de 288 relevés Moy (px+pn)/2 Variation Epaisseur neige Remarques diverses    
01/04/02 18,9 1,9 9,67 10,60 9,83 18,4 8,94 2,1 17,0 95% 43% 77,2% 69,0% 8,4 0,7 5,64 19,3 5,66 SW 33,8 WSW 10,78 0,0 0,00 0,0 1018,1 1016,2 1017,0 1017,2 1,9   Ciel entre 0/8 et 4/8, brouillard avec ciel visible en début de matinée  
02/04/02 15,7 2,4 10,10 9,05 10,21 15,3 8,09 2,5 13,3 97% 33% 65,1% 65,0% 9,2 -3,1 3,02 24,1 9,71 ENE 43,5 ENE 18,88 0,0 0,00 0,0 1018,1 1008,7 1013,8 1013,4 9,4   Ciel entre 0/8 et 4/8 de nuages instables, vent d'ENE modéré  
03/04/02 18,4 10,9 13,66 14,65 13,76 18,1 10,26 5,1 7,5 64% 31% 44,8% 47,5% 4,6 -2,1 1,66 30,6 14,56 E 66,0 E 28,54 0,0 0,00 0,0 1008,7 1000,2 1003,2 1004,5 8,5   Ciel entre 6/8 et 8/8, vent d'Est fort (66,0 km/h)  
04/04/02 19,9 4,6 12,47 12,25 12,61 19,4 11,74 3,2 15,3 87% 26% 47,8% 56,5% 8,1 -4,3 0,48 17,7 6,87 N 33,8 ENE 13,76 0,4 0,17 2,4 1003,2 999,2 1000,5 1001,2 4,0   Ciel entre 8/8 et 5/8, quelques petites averses en fin de journée  
05/04/02 21,4 4,2 12,52 12,80 12,66 19,9 11,75 2,4 17,2 88% 26% 59,0% 57,0% 8,1 -0,1 4,11 17,7 6,77 WNW 30,6 WNW 13,11 0,2 0,08 2,4 1003,2 999,3 1001,1 1001,3 3,9   Ciel entre 0/8 et 5/8 l'AM, quelques gouttes sous un congestus en fin d'AM  
06/04/02 18,2 2,6 10,20 10,40 10,34 17,9 9,36 2,7 15,6 94% 42% 73,9% 68,0% 9,1 1,3 5,46 16,1 6,78 E 35,4 SW 13,29 0,2 0,08 2,4 1011,2 1002,9 1006,6 1007,1 8,3   Ciel entre 0/8 et 7/8, quelques gouttes en soirée  
07/04/02 15,5 10,4 12,45 12,95 12,52 15,3 8,29 4,7 5,1 90% 48% 67,7% 69,0% 9,2 2,7 6,45 30,6 15,75 ENE 62,7 ENE 31,17 0,8 0,33 2,4 1013,5 1010,2 1011,9 1011,9 3,3   Ciel entre 7/8 et 8/8, vent fort d'E à ENE (62,7 km/h maxi), quelques averses faibles en matinée  
08/04/02 18,7 9,2 14,09 13,95 14,22 18,2 11,20 7,6 9,5 70% 43% 54,0% 56,5% 6,1 3,8 4,96 27,4 13,41 ENE 59,5 NE 26,73 0,0 0,00 0,0 1012,8 1008,4 1010,3 1010,6 4,4   Ciel entre 5/8 et 8/8, vent fort d'E à NE (59,5 km/h)  
09/04/02 18,1 8,1 11,78 13,10 11,85 17,6 11,37 8,2 10,0 92% 54% 74,3% 73,0% 9,7 3,8 7,23 16,1 4,93 N 29,0 SW 9,51 0,2 0,00 0,0 1009,3 1004,6 1007,0 1007,0 4,7   Ciel entre 6/8 et 8/8, orage lointain vers l'ENE dans l'AM, puis un orage proche au SSE en fin d'AM, quelques rares gouttes entre les 2 orages  
10/04/02 13,7 6,9 9,09 10,30 9,16 12,9 5,61 -0,7 6,8 94% 55% 81,9% 74,5% 8,6 3,1 6,05 22,5 12,47 ENE 46,7 ENE 24,29 10,1 2,67 9,6 1006,5 1003,8 1005,2 1005,2 2,7   Ciel entre 7/8 et 8/8, vent modéré d'ENE, pluie faible à modérée dans la soirée à 11,4 mm/h maxi  
11/04/02 10,9 7,2 8,47 9,05 8,50 10,4 4,89 0,9 3,7 97% 72% 88,2% 84,5% 7,8 5,0 6,62 24,1 12,23 ENE 54,7 ENE 23,69 25,7 8,42 9,6 1003,9 994,7 999,0 999,3 9,2   Ciel entre 7/8 et 8/8, vent modéré d'ENE, pluie faible à modérée continue de 9H à 19h45 TU, puis une averse dans la nuit, 11,4 mm d'intensité maxi  
12/04/02 17,0 7,8 10,96 12,40 11,04 16,5 10,26 6,1 9,2 97% 66% 85,5% 81,5% 11,4 7,4 8,59 17,7 5,91 SW 29,0 SW 11,17 4,2 1,50 4,8 995,6 993,0 994,1 994,3 2,6   Ciel entre 8/8 et 5/8 l'AM, pluie faible dans la nuit 4,8 mm/h maxi  
13/04/02 11,6 8,1 9,46 9,85 9,52 11,2 9,30 5,4 3,3 98% 89% 95,3% 93,5% 10,2 7,5 8,81 11,3 3,35 NE 22,5 NE 6,73 10,6 4,00 4,8 1003,5 993,7 998,2 998,6 9,8   Ciel entre 8/8 et 7/8, pluie faible en fin de nuit et la journée à 4,6 mm/h maxi  
14/04/02 17,0 5,7 10,00 11,35 10,15 16,2 5,00 -1,7 11,3 95% 39% 64,1% 67,0% 7,8 -3,4 3,16 29,0 16,95 WNW 54,7 NW 32,03 0,2 0,00 0,0 1007,5 1003,4 1005,5 1005,5 4,1   Ciel entre 5/8 et 1/8, vent d'W à WNW modéré  
15/04/02 18,1 3,8 9,74 10,95 9,94 17,7 5,42 -6,9 14,3 64% 29% 46,0% 46,5% 2,3 -3,3 -1,59 29,0 14,75 WNW 53,1 NW 27,50 0,0 0,00 0,0 1010,8 1006,6 1008,4 1008,7 4,2   Ciel entre 1/8 et 4/8, vent d'WNW à NW modéré  
16/04/02 19,0 3,4 9,30 11,20 9,47 18,5 8,08 -0,8 15,6 92% 30% 60,7% 61,0% 6,3 -2,2 1,66 16,1 7,16 WNW 33,8 NW 14,22 0,0 0,00 0,0 1012,5 1009,7 1010,9 1011,1 2,8   Ciel entre 1/8 et 6/8  
17/04/02 19,3 1,7 10,05 10,50 10,25 18,9 9,53 1,7 17,6 87% 37% 62,9% 62,0% 6,9 -0,8 2,89 19,3 6,03 SW 32,2 WSW 11,95 0,0 0,00 0,0 1015,0 1011,7 1013,0 1013,4 3,3   Ciel entre 4/8 et 0/8  
18/04/02 23,7 5,1 14,15 14,40 13,87 20,8 12,83 3,4 18,6 82% 18% 46,8% 50,0% 4,9 -3,4 1,68 24,1 10,00 WNW 48,3 W 18,66 0,0 0,00 0,0 1017,4 1014,3 1015,5 1015,9 3,1   Ciel entre 2/8 et 0/8, vent d'W à WNW modéré  
19/04/02 22,9 6,7 14,41 14,80 14,11 19,9 11,60 3,6 16,2 77% 16% 40,0% 46,5% 4,1 -7,1 -0,54 27,4 14,04 WNW 51,5 NW 25,25 0,0 0,00 0,0 1018,5 1016,1 1017,4 1017,3 2,4   Ciel entre 0/8 et 4/8 de cirrus, vent modéré d'WNW à NW  
20/04/02 23,1 5,5 13,53 14,30 13,27 20,7 10,45 1,6 17,6 85% 14% 40,0% 49,5% 6,2 -9,1 -1,31 33,8 14,46 NW 57,9 WSW 26,98 0,0 0,00 0,0 1021,4 1015,8 1018,7 1018,6 5,6   Ciel entre 0/8 et 5/8 en fin d'AM, vent de NW à WSW à 57,9 km/h suivi d'une brusque bascule à l'ENE/NE au maxi à 57,9 km/h avec un très rapide changement de masse d'air vers 17h15 TU , le Td passe de -9° à +5° en 60 mn et la HR de 14% à 60% avec l'arrivée de nuages instables et une remontée de la pression .  
21/04/02 22,2 4,2 12,55 13,20 12,41 19,9 12,42 4,2 18,0 85% 24% 49,1% 54,5% 4,1 -1,9 1,30 16,1 4,74 WSW 25,7 WSW 9,09 0,0 0,00 0,0 1027,3 1020,3 1024,3 1023,8 7,0   Ciel entre 0/8 et 3/8  
22/04/02 23,8 3,4 13,72 13,60 13,22 22,1 13,22 3,4 20,4 89% 24% 53,5% 56,5% 7,7 1,1 3,11 24,1 6,18 WSW 40,2 WSW 11,30 0,0 0,00 0,0 1027,9 1024,5 1026,4 1026,2 3,4   Ciel entre 1/8 et 4/8 de nuages élevés, brise modérée ( SSW à WSW)  
23/04/02 23,4 6,0 14,50 14,70 14,13 21,7 14,33 6,1 17,4 87% 27% 56,0% 57,0% 8,8 2,3 4,82 17,7 4,75 SW 32,2 SW 9,43 0,0 0,00 0,0 1025,4 1023,1 1024,1 1024,3 2,3   Ciel entre 3/8 et 7/8 avec nuages élevés le matin et nuages instables dans l'AM  
24/04/02 24,4 4,6 15,18 14,50 14,91 22,8 14,69 4,7 19,8 88% 27% 58,5% 57,5% 10,1 2,6 6,17 19,3 6,58 WSW 43,5 SW 12,30 0,0 0,00 0,0 1024,2 1015,3 1019,4 1019,8 8,9   Ciel entre 6/8 et 3/8, brise de SSW à WSW modérée  
25/04/02 23,8 9,2 15,10 16,50 15,03 22,8 14,48 8,9 14,6 93% 37% 70,4% 65,0% 11,8 6,7 9,29 22,5 7,39 SW 37,0 SW 14,14 0,0 0,00 0,0 1020,2 1016,5 1018,5 1018,4 3,7   Ciel entre 4/8 et 1/8, brise SSW à WSW modérée  
26/04/02 22,8 6,4 15,13 14,60 15,21 21,8 14,21 6,4 16,4 97% 45% 71,6% 71,0% 13,5 5,6 9,76 25,7 7,38 SW 46,7 WNW 14,17 0,0 0,00 0,0 1018,1 1011,0 1014,8 1014,6 7,1   Ciel entre 2/8 et 5/8, vent d'WNW modéré dans la soirée  
27/04/02 24,4 12,3 16,89 18,35 16,38 21,7 12,17 3,8 12,1 65% 10% 33,5% 37,5% 7,1 -12,7 -1,59 40,2 23,44 WNW 70,8 NW 42,10 0,0 0,00 0,0 1012,1 1009,4 1010,8 1010,8 2,7   Ciel entre 1/8 et 0/8, vent d"W à NW fort, 70,8 km/h, temps très sec en fin d'AM, HR mini de 9%, record de la station  
28/04/02 20,2 6,1 13,83 13,10 14,02 19,3 12,72 4,2 14,0 90% 16% 46,9% 53,0% 9,3 -13,1 1,46 20,9 8,11 SW 38,6 SW 15,19 0,0 0,00 0,0 1014,1 1011,2 1012,9 1012,7 2,9   Ciel entre 4/8 et 7/8, vent de SW modéré  
29/04/02 23,0 7,9 15,15 15,45 14,86 20,4 12,07 6,4 15,1 96% 24% 56,1% 60,0% 10,7 0,3 5,16 30,6 16,26 WNW 57,9 NW 29,34 0,0 0,00 0,0 1015,3 1012,6 1013,7 1014,0 2,7   Ciel entre 0/8 et 5/8 de cirrus, vent d'WNW fort 57,9 km/h  
30/04/02 22,4 8,4 14,36 15,40 14,39 20,7 13,05 2,2 14,0 92% 29% 60,7% 60,5% 11,2 1,8 6,55 24,1 8,75 SW 37,0 WNW 15,98 0,0 0,00 0,0 1017,0 1014,4 1016,1 1015,7 2,6   Ciel entre 0/8 et 5/8, vent de SW modéré  
                                                                   
  Températures (°C) Humidité Vent  (km/h) Pluies Pression (hPa) Divers  
  Max Min Moy de 288 relevés Moy (tx+tn)/2 Index chaleur moyen Index chaleur maxi Froid du au vent moy Froid du au vent moy mini  Tx-Tn Relative maxi Relative mini Relative moy de 288 relevés Relative moy (hx+hn)/2 Point de rosée maxi Point de rosée mini Point de rosée moyen Vent  moy maxi (10mn) Vent  moyen (24h) Direction dominante Rafales (km/h) maxi Direction rafale maxi Rafales moy Total Du jour (mm) Durée (h) Intensité maxi (mm/h) Maxi Mini Moy de 288 relevés Moy (px+pn)/2 Variation Epaisseur neige Remarques diverses  
Maxi 24,4 12,3 16,89 18,35 16,38 22,8 14,7 8,9 20,4 98% 89% 95,3% 93,5% 13,5 7,5 9,76 40,2 23,44 SW 70,8 NW 42,10 25,7 8,42 9,6 1027,9 1024,5 1026,4 1026,2 9,8 0,0    
Mini 10,9 1,7 8,47 9,05 8,50 10,4 4,9 -6,9 3,3 64% 10% 33,5% 37,5% 2,3 -13,1 -1,59 11,3 3,35   22,5   6,73       995,6 993,0 994,1 994,3 1,9    
Moy 19,7 6,2 12,42 12,94 12,39 18,6 10,6 3,4 13,6 87,6% 35,8% 61,1% 61,7% 8,1 -0,4 4,03 23,2 9,85   43,6   18,71       1013,7 1009,0 1011,3 1011,4 4,7    
Total                                             52,6 17,25             0,0  
   
Observations        
Jours Rafales > 36 km/h Rafales > 57,6 km/h Rafales > 75,6 km/h Rafales > 100,8 km/h Précipi. >=0,1 mm Précipi. >=1 mm Précipi. >=5 mm Précipi. >=10 mm Tx < 0 Tx > 25 Tx > 30 Tx > 35 Tx > 40 Tn < 0 Tn < -5 Tn < -10 Tn < -15 T moy < 0 T moy < -5 T moy > 20 T moy > 25 T moy > 30 Grêle Grésil Brouillard Brume Orage Neige        
01/04/02 0 0 0 0 0 0 0 0 0 0 0 0 0 0 0 0 0 0 0 0 0 0 0 0 1 1 0 0    
02/04/02 1 0 0 0 0 0 0 0 0 0 0 0 0 0 0 0 0 0 0 0 0 0 0 0 0 0 0 0    
03/04/02 1 1 0 0 0 0 0 0 0 0 0 0 0 0 0 0 0 0 0 0 0 0 0 0 0 0 0 0    
04/04/02 0 0 0 0 1 0 0 0 0 0 0 0 0 0 0 0 0 0 0 0 0 0 0 0 0 0 0 0    
05/04/02 0 0 0 0 1 0 0 0 0 0 0 0 0 0 0 0 0 0 0 0 0 0 0 0 0 0 0 0    
06/04/02 0 0 0 0 0 0 0 0 0 0 0 0 0 0 0 0 0 0 0 0 0 0 0 0 0 0 0 0    
07/04/02 1 1 0 0 1 0 0 0 0 0 0 0 0 0 0 0 0 0 0 0 0 0 0 0 0 0 0 0    
08/04/02 1 1 0 0 0 0 0 0 0 0 0 0 0 0 0 0 0 0 0 0 0 0 0 0 0 0 0 0    
09/04/02 0 0 0 0 0 0 0 0 0 0 0 0 0 0 0 0 0 0 0 0 0 0 0 0 0 0 1 0    
10/04/02 1 0 0 0 1 1 1 0 0 0 0 0 0 0 0 0 0 0 0 0 0 0 0 0 0 0 0 0    
11/04/02 1 0 0 0 1 1 1 1 0 0 0 0 0 0 0 0 0 0 0 0 0 0 0 0 0 0 0 0    
12/04/02 0 0 0 0 1 1 0 0 0 0 0 0 0 0 0 0 0 0 0 0 0 0 0 0 0 0 0 0    
13/04/02 0 0 0 0 1 1 1 1 0 0 0 0 0 0 0 0 0 0 0 0 0 0 0 0 0 0 0 0    
14/04/02 1 0 0 0 0 0 0 0 0 0 0 0 0 0 0 0 0 0 0 0 0 0 0 0 0 0 0 0    
15/04/02 1 0 0 0 0 0 0 0 0 0 0 0 0 0 0 0 0 0 0 0 0 0 0 0 0 0 0 0    
16/04/02 0 0 0 0 0 0 0 0 0 0 0 0 0 0 0 0 0 0 0 0 0 0 0 0 0 0 0 0    
17/04/02 0 0 0 0 0 0 0 0 0 0 0 0 0 0 0 0 0 0 0 0 0 0 0 0 0 0 0 0    
18/04/02 1 0 0 0 0 0 0 0 0 0 0 0 0 0 0 0 0 0 0 0 0 0 0 0 0 0 0 0    
19/04/02 1 0 0 0 0 0 0 0 0 0 0 0 0 0 0 0 0 0 0 0 0 0 0 0 0 0 0 0    
20/04/02 1 1 0 0 0 0 0 0 0 0 0 0 0 0 0 0 0 0 0 0 0 0 0 0 0 0 0 0    
21/04/02 0 0 0 0 0 0 0 0 0 0 0 0 0 0 0 0 0 0 0 0 0 0 0 0 0 0 0 0    
22/04/02 1 0 0 0 0 0 0 0 0 0 0 0 0 0 0 0 0 0 0 0 0 0 0 0 0 0 0 0    
23/04/02 0 0 0 0 0 0 0 0 0 0 0 0 0 0 0 0 0 0 0 0 0 0 0 0 0 0 0 0    
24/04/02 1 0 0 0 0 0 0 0 0 0 0 0 0 0 0 0 0 0 0 0 0 0 0 0 0 0 0 0    
25/04/02 1 0 0 0 0 0 0 0 0 0 0 0 0 0 0 0 0 0 0 0 0 0 0 0 0 0 0 0